createdAt,value
2023-02-07T00:01:21.437Z,150.90
2023-02-07T00:03:49.480Z,150.83
2023-02-07T00:06:19.586Z,150.70
2023-02-07T00:08:49.718Z,150.63
2023-02-07T00:11:20.248Z,150.20
2023-02-07T00:13:50.387Z,149.70
2023-02-07T00:16:18.637Z,150.00
2023-02-07T00:18:46.864Z,149.77
2023-02-07T00:21:16.364Z,151.30
2023-02-07T00:23:44.808Z,151.30
2023-02-07T00:26:18.360Z,151.37
2023-02-07T00:28:48.437Z,150.30
2023-02-07T00:31:19.999Z,151.17
2023-02-07T00:33:49.374Z,150.30
2023-02-07T00:36:20.768Z,151.00
2023-02-07T00:38:49.624Z,150.23
2023-02-07T00:41:20.060Z,150.60
2023-02-07T00:43:49.054Z,150.23
2023-02-07T00:46:17.663Z,150.00
2023-02-07T00:48:46.304Z,150.57
2023-02-07T00:51:14.809Z,150.17
2023-02-07T00:53:44.182Z,150.43
2023-02-07T00:56:12.948Z,150.20
2023-02-07T00:58:42.098Z,151.13
2023-02-07T01:01:10.231Z,150.53
2023-02-07T01:03:38.383Z,150.27
2023-02-07T01:06:07.176Z,150.67
2023-02-07T01:08:35.369Z,150.40
2023-02-07T01:11:04.397Z,150.67
2023-02-07T01:13:32.535Z,150.03
2023-02-07T01:16:02.223Z,150.63
2023-02-07T01:18:30.429Z,150.33
2023-02-07T01:20:58.302Z,150.77
2023-02-07T01:23:26.084Z,150.80
2023-02-07T01:25:53.890Z,150.53
2023-02-07T01:28:21.751Z,149.93
2023-02-07T01:30:49.621Z,150.27
2023-02-07T01:33:18.748Z,150.77
2023-02-07T01:35:46.996Z,149.97
2023-02-07T01:38:14.805Z,150.27
2023-02-07T01:40:42.628Z,150.07
2023-02-07T01:43:18.140Z,150.30
2023-02-07T01:45:46.086Z,149.57
2023-02-07T01:48:20.959Z,150.43
2023-02-07T01:50:51.300Z,149.97
2023-02-07T01:53:24.557Z,150.57
2023-02-07T01:55:56.879Z,150.37
2023-02-07T01:58:25.086Z,150.90
2023-02-07T02:00:53.512Z,149.63
2023-02-07T02:03:23.166Z,150.07
2023-02-07T02:05:54.136Z,150.00
2023-02-07T02:08:22.354Z,150.10
2023-02-07T02:11:05.105Z,150.33
2023-02-07T02:13:41.513Z,150.27
2023-02-07T02:16:18.717Z,150.67
2023-02-07T02:19:09.303Z,150.07
2023-02-07T02:22:03.117Z,150.10
2023-02-07T02:24:58.901Z,150.67
2023-02-07T02:27:41.731Z,149.90
2023-02-07T02:30:48.625Z,150.40
2023-02-07T02:33:30.139Z,149.67
2023-02-07T02:36:07.589Z,149.67
2023-02-07T02:38:39.624Z,150.53
2023-02-07T02:41:11.984Z,150.30
2023-02-07T02:43:45.626Z,150.57
2023-02-07T02:46:17.779Z,150.40
2023-02-07T02:48:47.299Z,149.83
2023-02-07T02:51:15.384Z,150.30
2023-02-07T02:53:53.519Z,150.63
2023-02-07T02:56:39.946Z,150.13
2023-02-07T02:59:25.511Z,149.80
2023-02-07T03:02:05.482Z,150.33
2023-02-07T03:04:47.528Z,149.80
2023-02-07T03:07:36.433Z,150.13
2023-02-07T03:10:14.208Z,150.07
2023-02-07T03:12:50.609Z,150.70
2023-02-07T03:15:25.791Z,150.50
2023-02-07T03:17:57.996Z,150.33
2023-02-07T03:20:31.272Z,149.73
2023-02-07T03:23:03.177Z,149.77
2023-02-07T03:25:33.255Z,149.37
2023-02-07T03:28:03.336Z,149.50
2023-02-07T03:30:34.645Z,149.67
2023-02-07T03:33:07.827Z,149.70
2023-02-07T03:35:42.842Z,150.43
2023-02-07T03:38:12.216Z,150.47
2023-02-07T03:40:43.637Z,149.70
2023-02-07T03:43:14.504Z,150.37
2023-02-07T03:45:42.684Z,149.97
2023-02-07T03:48:11.197Z,149.97
2023-02-07T03:50:40.409Z,149.93
2023-02-07T03:53:08.522Z,150.13
2023-02-07T03:55:36.683Z,149.93
2023-02-07T03:58:04.794Z,150.10
2023-02-07T04:00:32.588Z,149.80
2023-02-07T04:03:00.487Z,149.80
2023-02-07T04:05:28.372Z,149.97
2023-02-07T04:07:57.514Z,148.97
2023-02-07T04:10:25.296Z,149.83
2023-02-07T04:12:53.296Z,149.67
2023-02-07T04:15:21.303Z,149.50
2023-02-07T04:17:49.124Z,149.67
2023-02-07T04:20:17.148Z,149.47
2023-02-07T04:22:44.932Z,149.93
2023-02-07T04:25:14.156Z,149.77
2023-02-07T04:27:41.947Z,149.90
2023-02-07T04:30:11.321Z,149.80
2023-02-07T04:32:39.298Z,149.47
2023-02-07T04:35:07.792Z,148.93
2023-02-07T04:37:35.612Z,149.53
2023-02-07T04:40:03.413Z,149.77
2023-02-07T04:42:32.852Z,149.37
2023-02-07T04:45:00.652Z,149.60
2023-02-07T04:47:28.441Z,148.93
2023-02-07T04:49:56.294Z,149.30
2023-02-07T04:52:24.380Z,149.43
2023-02-07T04:54:52.226Z,149.80
2023-02-07T04:57:20.043Z,149.53
2023-02-07T04:59:49.231Z,149.93
2023-02-07T05:02:17.048Z,148.73
2023-02-07T05:04:44.931Z,149.23
2023-02-07T05:07:12.727Z,148.40
2023-02-07T05:09:40.561Z,149.17
2023-02-07T05:12:09.001Z,149.17
2023-02-07T05:14:37.010Z,149.03
2023-02-07T05:17:06.415Z,149.43
2023-02-07T05:19:34.234Z,149.00
2023-02-07T05:22:02.111Z,148.53
2023-02-07T05:24:29.950Z,149.00
2023-02-07T05:26:57.764Z,149.30
2023-02-07T05:29:25.836Z,148.87
2023-02-07T05:32:11.258Z,149.37
2023-02-07T05:34:40.383Z,149.43
2023-02-07T05:37:08.255Z,149.33
2023-02-07T05:39:36.057Z,149.43
2023-02-07T05:42:03.917Z,149.20
2023-02-07T05:44:31.704Z,149.17
2023-02-07T05:46:59.480Z,148.33
2023-02-07T05:49:27.281Z,149.13
2023-02-07T05:51:56.508Z,149.27
2023-02-07T05:54:24.422Z,148.53
2023-02-07T05:56:52.248Z,149.03
2023-02-07T05:59:20.188Z,148.60
2023-02-07T06:01:48.038Z,148.73
2023-02-07T06:04:15.884Z,148.50
2023-02-07T06:06:44.186Z,149.20
2023-02-07T06:09:13.398Z,149.20
2023-02-07T06:11:41.229Z,148.30
2023-02-07T06:14:09.036Z,148.90
2023-02-07T06:16:36.892Z,148.60
2023-02-07T06:19:04.725Z,149.00
2023-02-07T06:21:45.737Z,148.47
2023-02-07T06:24:16.075Z,149.13
2023-02-07T06:26:46.512Z,148.30
2023-02-07T06:29:14.689Z,149.10
2023-02-07T06:31:42.593Z,148.60
2023-02-07T06:34:10.510Z,149.03
2023-02-07T06:36:38.341Z,148.60
2023-02-07T06:39:06.285Z,148.73
2023-02-07T06:41:35.443Z,149.00
2023-02-07T06:44:03.243Z,148.47
2023-02-07T06:46:31.084Z,148.60
2023-02-07T06:48:58.930Z,148.67
2023-02-07T06:51:26.816Z,148.67
2023-02-07T06:53:54.643Z,148.97
2023-02-07T06:56:22.477Z,148.87
2023-02-07T06:58:51.641Z,148.50
2023-02-07T07:01:21.130Z,148.47
2023-02-07T07:03:48.954Z,148.80
2023-02-07T07:06:16.868Z,149.00
2023-02-07T07:08:44.677Z,148.83
2023-02-07T07:11:12.513Z,148.60
2023-02-07T07:13:40.297Z,148.37
2023-02-07T07:16:10.456Z,148.20
2023-02-07T07:18:39.079Z,148.73
2023-02-07T07:21:07.417Z,148.67
2023-02-07T07:23:35.246Z,148.47
2023-02-07T07:26:03.111Z,148.33
2023-02-07T07:28:31.118Z,148.93
2023-02-07T07:31:04.404Z,148.50
2023-02-07T07:33:34.157Z,148.80
2023-02-07T07:36:02.844Z,148.27
2023-02-07T07:38:30.815Z,148.27
2023-02-07T07:40:59.320Z,148.53
2023-02-07T07:43:27.672Z,147.73
2023-02-07T07:45:57.789Z,148.10
2023-02-07T07:48:26.224Z,148.57
2023-02-07T07:50:56.616Z,148.33
2023-02-07T07:53:24.413Z,148.67
2023-02-07T07:55:53.631Z,148.10
2023-02-07T07:58:23.420Z,148.50
2023-02-07T08:00:51.988Z,147.93
2023-02-07T08:03:20.847Z,147.80
2023-02-07T08:05:49.189Z,148.77
2023-02-07T08:08:19.759Z,149.50
2023-02-07T08:10:48.170Z,147.87
2023-02-07T08:13:16.738Z,148.87
2023-02-07T08:15:44.948Z,148.63
2023-02-07T08:18:12.738Z,148.27
2023-02-07T08:20:40.865Z,148.47
2023-02-07T08:23:08.820Z,148.63
2023-02-07T08:25:38.016Z,147.90
2023-02-07T08:28:05.930Z,148.97
2023-02-07T08:30:34.055Z,150.40
2023-02-07T08:33:01.899Z,150.70
2023-02-07T08:35:29.785Z,150.87
2023-02-07T08:37:58.234Z,151.70
2023-02-07T08:40:26.879Z,151.73
2023-02-07T08:42:56.000Z,152.77
2023-02-07T08:45:24.050Z,152.60
2023-02-07T08:47:52.316Z,153.30
2023-02-07T08:50:20.687Z,152.57
2023-02-07T08:52:48.507Z,152.03
2023-02-07T08:55:16.974Z,151.87
2023-02-07T08:57:44.956Z,151.77
2023-02-07T09:00:15.598Z,151.77
2023-02-07T09:02:43.490Z,152.07
2023-02-07T09:05:11.356Z,151.47
2023-02-07T09:07:39.483Z,151.80
2023-02-07T09:10:10.378Z,152.17
2023-02-07T09:12:38.650Z,152.47
2023-02-07T09:15:07.399Z,152.20
2023-02-07T09:17:37.150Z,152.60
2023-02-07T09:20:05.217Z,152.60
2023-02-07T09:22:53.048Z,152.87
2023-02-07T09:25:20.863Z,152.13
2023-02-07T09:27:48.731Z,152.53
2023-02-07T09:30:16.808Z,152.73
2023-02-07T09:32:45.959Z,152.30
2023-02-07T09:35:13.826Z,152.97
2023-02-07T09:37:49.326Z,152.53
2023-02-07T09:40:20.324Z,152.63
2023-02-07T09:42:56.268Z,151.97
2023-02-07T09:45:27.290Z,152.33
2023-02-07T09:48:10.088Z,152.10
2023-02-07T09:50:46.734Z,151.80
2023-02-07T09:53:17.931Z,151.93
2023-02-07T09:55:49.931Z,151.97
2023-02-07T09:58:22.138Z,151.67
2023-02-07T10:00:58.034Z,151.77
2023-02-07T10:03:29.362Z,151.90
2023-02-07T10:06:09.212Z,151.50
2023-02-07T10:08:45.093Z,151.77
2023-02-07T10:11:21.271Z,151.67
2023-02-07T10:14:10.080Z,151.63
2023-02-07T10:16:48.966Z,150.77
2023-02-07T10:19:32.725Z,151.63
2023-02-07T10:22:09.946Z,151.30
2023-02-07T10:25:01.222Z,151.43
2023-02-07T10:27:32.318Z,151.80
2023-02-07T10:30:10.086Z,151.50
2023-02-07T10:32:39.970Z,152.20
2023-02-07T10:35:18.932Z,150.97
2023-02-07T10:37:49.862Z,151.20
2023-02-07T10:40:23.834Z,150.63
2023-02-07T10:42:59.759Z,151.23
2023-02-07T10:45:27.759Z,151.80
2023-02-07T10:47:57.532Z,150.80
2023-02-07T10:50:30.887Z,151.47
2023-02-07T10:53:00.134Z,151.00
2023-02-07T10:55:42.898Z,151.53
2023-02-07T10:58:22.841Z,151.10
2023-02-07T11:00:53.578Z,151.27
2023-02-07T11:03:22.926Z,151.10
2023-02-07T11:05:58.637Z,151.93
2023-02-07T11:08:29.206Z,151.83
2023-02-07T11:10:59.011Z,151.53
2023-02-07T11:13:29.512Z,151.47
2023-02-07T11:16:00.973Z,151.93
2023-02-07T11:18:45.024Z,152.07
2023-02-07T11:21:28.823Z,151.27
2023-02-07T11:24:00.696Z,151.40
2023-02-07T11:26:30.313Z,152.00
2023-02-07T11:29:06.997Z,151.50
2023-02-07T11:31:38.509Z,151.67
2023-02-07T11:34:12.005Z,151.83
2023-02-07T11:36:41.267Z,151.67
2023-02-07T11:39:17.831Z,151.10
2023-02-07T11:41:55.756Z,151.30
2023-02-07T11:44:25.680Z,151.67
2023-02-07T11:46:57.745Z,151.37
2023-02-07T11:49:28.022Z,151.17
2023-02-07T11:51:59.821Z,151.77
2023-02-07T11:54:29.130Z,151.23
2023-02-07T11:57:03.747Z,150.97
2023-02-07T11:59:33.425Z,152.57
2023-02-07T12:02:08.352Z,151.97
2023-02-07T12:04:39.549Z,152.40
2023-02-07T12:07:14.260Z,151.70
2023-02-07T12:09:46.680Z,151.40
2023-02-07T12:12:19.881Z,151.03
2023-02-07T12:14:52.423Z,151.10
2023-02-07T12:17:27.452Z,150.93
2023-02-07T12:20:00.095Z,151.03
2023-02-07T12:22:41.872Z,151.27
2023-02-07T12:25:18.815Z,151.47
2023-02-07T12:27:51.166Z,151.07
2023-02-07T12:30:27.069Z,151.50
2023-02-07T12:33:01.580Z,151.63
2023-02-07T12:35:36.513Z,151.67
2023-02-07T12:38:17.065Z,150.97
2023-02-07T12:40:48.852Z,151.00
2023-02-07T12:43:24.222Z,151.00
2023-02-07T12:46:04.647Z,151.67
2023-02-07T12:48:49.340Z,151.03
2023-02-07T12:51:30.998Z,151.17
2023-02-07T12:54:18.339Z,151.43
2023-02-07T12:56:53.796Z,151.23
2023-02-07T12:59:29.832Z,151.13
2023-02-07T13:02:09.127Z,151.03
2023-02-07T13:05:06.762Z,150.20
2023-02-07T13:07:42.907Z,151.13
2023-02-07T13:10:22.721Z,151.30
2023-02-07T13:12:57.638Z,150.47
2023-02-07T13:15:35.782Z,150.80
2023-02-07T13:18:08.944Z,151.33
2023-02-07T13:20:59.328Z,151.50
2023-02-07T13:23:31.429Z,150.87
2023-02-07T13:26:03.544Z,151.43
2023-02-07T13:28:40.979Z,151.30
2023-02-07T13:31:12.205Z,151.40
2023-02-07T13:33:41.877Z,151.80
2023-02-07T13:36:18.662Z,150.93
2023-02-07T13:38:54.509Z,151.23
2023-02-07T13:41:33.868Z,150.23
2023-02-07T13:44:10.093Z,151.57
2023-02-07T13:46:56.393Z,150.83
2023-02-07T13:49:37.015Z,150.90
2023-02-07T13:52:11.805Z,150.53
2023-02-07T13:54:44.902Z,150.37
2023-02-07T13:57:57.852Z,150.83
2023-02-07T14:00:27.813Z,150.97
2023-02-07T14:02:58.657Z,151.23
2023-02-07T14:05:29.901Z,151.47
2023-02-07T14:08:03.367Z,151.60
2023-02-07T14:10:45.620Z,151.03
2023-02-07T14:13:34.139Z,151.27
2023-02-07T14:16:05.939Z,151.27
2023-02-07T14:18:46.971Z,150.73
2023-02-07T14:21:30.892Z,151.57
2023-02-07T14:24:30.117Z,151.03
2023-02-07T14:27:03.590Z,151.37
2023-02-07T14:30:04.157Z,150.83
2023-02-07T14:32:41.613Z,151.33
2023-02-07T14:35:34.987Z,151.40
2023-02-07T14:38:13.538Z,151.07
2023-02-07T14:41:11.645Z,151.00
2023-02-07T14:44:09.286Z,150.70
2023-02-07T14:46:41.490Z,151.07
2023-02-07T14:49:16.780Z,151.07
2023-02-07T14:51:47.924Z,151.43
2023-02-07T14:54:19.842Z,151.97
2023-02-07T14:57:06.867Z,151.33
2023-02-07T14:59:38.943Z,151.10
2023-02-07T15:02:29.673Z,152.13
2023-02-07T15:04:59.308Z,151.27
2023-02-07T15:07:27.175Z,151.00
2023-02-07T15:09:54.935Z,151.73
2023-02-07T15:12:27.815Z,151.27
2023-02-07T15:14:57.739Z,151.30
2023-02-07T15:17:39.311Z,150.37
2023-02-07T15:20:17.644Z,151.03
2023-02-07T15:22:49.049Z,150.47
2023-02-07T15:25:17.472Z,151.03
2023-02-07T15:28:00.380Z,151.87
2023-02-07T15:30:28.361Z,150.87
2023-02-07T15:32:56.191Z,150.87
2023-02-07T15:35:27.861Z,151.23
2023-02-07T15:38:14.652Z,150.97
2023-02-07T15:40:44.569Z,151.20
2023-02-07T15:43:26.092Z,150.53
2023-02-07T15:46:06.978Z,151.90
2023-02-07T15:48:46.690Z,151.33
2023-02-07T15:51:18.608Z,150.93
2023-02-07T15:53:51.117Z,151.30
2023-02-07T15:56:19.758Z,151.17
2023-02-07T15:58:49.022Z,151.00
2023-02-07T16:01:21.824Z,151.17
2023-02-07T16:03:51.733Z,150.90
2023-02-07T16:06:23.336Z,150.80
2023-02-07T16:08:53.295Z,151.50
2023-02-07T16:11:39.598Z,151.77
2023-02-07T16:14:18.139Z,151.47
2023-02-07T16:16:50.538Z,151.40
2023-02-07T16:19:20.217Z,151.17
2023-02-07T16:21:53.823Z,151.43
2023-02-07T16:24:24.175Z,151.30
2023-02-07T16:26:52.281Z,151.93
2023-02-07T16:29:22.039Z,150.83
2023-02-07T16:31:50.674Z,150.40
2023-02-07T16:34:20.645Z,151.00
2023-02-07T16:36:51.681Z,150.77
2023-02-07T16:39:19.603Z,151.07
2023-02-07T16:41:49.876Z,150.87
2023-02-07T16:44:23.173Z,150.17
2023-02-07T16:46:51.268Z,151.60
2023-02-07T16:49:22.795Z,150.63
2023-02-07T16:51:52.683Z,151.13
2023-02-07T16:54:20.908Z,150.67
2023-02-07T16:56:53.600Z,150.40
2023-02-07T16:59:22.740Z,151.57
2023-02-07T17:01:52.214Z,151.17
2023-02-07T17:04:20.811Z,151.10
2023-02-07T17:06:49.272Z,151.10
2023-02-07T17:09:20.780Z,151.00
2023-02-07T17:11:48.875Z,150.47
2023-02-07T17:14:17.008Z,151.27
2023-02-07T17:16:46.394Z,150.23
2023-02-07T17:19:18.159Z,151.00
2023-02-07T17:21:46.343Z,150.47
2023-02-07T17:24:14.291Z,150.30
2023-02-07T17:26:47.064Z,150.93
2023-02-07T17:29:16.542Z,151.03
2023-02-07T17:31:45.360Z,151.47
2023-02-07T17:34:13.388Z,151.27
2023-02-07T17:36:45.077Z,151.50
2023-02-07T17:39:14.411Z,151.17
2023-02-07T17:41:43.655Z,151.57
2023-02-07T17:44:11.480Z,150.53
2023-02-07T17:46:39.335Z,151.37
2023-02-07T17:49:13.530Z,151.27
2023-02-07T17:51:41.365Z,150.97
2023-02-07T17:54:09.156Z,151.63
2023-02-07T17:56:37.227Z,151.33
2023-02-07T17:59:09.962Z,151.83
2023-02-07T18:01:37.777Z,150.30
2023-02-07T18:04:06.259Z,151.40
2023-02-07T18:06:34.105Z,150.80
2023-02-07T18:09:01.889Z,151.57
2023-02-07T18:11:31.155Z,152.00
2023-02-07T18:14:01.736Z,150.67
2023-02-07T18:16:30.900Z,150.20
2023-02-07T18:18:58.840Z,151.47
2023-02-07T18:21:27.700Z,151.23
2023-02-07T18:23:56.177Z,151.03
2023-02-07T18:26:24.319Z,150.10
2023-02-07T18:28:53.321Z,151.53
2023-02-07T18:31:24.186Z,150.40
2023-02-07T18:33:54.572Z,150.80
2023-02-07T18:36:24.318Z,150.93
2023-02-07T18:38:52.093Z,151.00
2023-02-07T18:41:23.299Z,151.27
2023-02-07T18:43:51.587Z,150.47
2023-02-07T18:46:21.094Z,150.53
2023-02-07T18:48:50.295Z,150.80
2023-02-07T18:51:20.028Z,150.57
2023-02-07T18:53:48.239Z,150.50
2023-02-07T18:56:17.652Z,151.17
2023-02-07T18:58:47.348Z,150.57
2023-02-07T19:01:19.916Z,150.47
2023-02-07T19:03:51.247Z,151.03
2023-02-07T19:06:20.502Z,150.83
2023-02-07T19:08:48.498Z,150.47
2023-02-07T19:11:16.640Z,151.40
2023-02-07T19:13:44.639Z,151.03
2023-02-07T19:16:15.763Z,150.77
2023-02-07T19:18:43.566Z,151.20
2023-02-07T19:21:14.040Z,150.43
2023-02-07T19:23:43.356Z,150.77
2023-02-07T19:26:11.799Z,151.03
2023-02-07T19:28:40.237Z,150.73
2023-02-07T19:31:10.466Z,150.63
2023-02-07T19:33:38.426Z,150.03
2023-02-07T19:36:07.894Z,151.03
2023-02-07T19:38:35.744Z,150.60
2023-02-07T19:41:06.139Z,150.97
2023-02-07T19:43:34.680Z,151.97
2023-02-07T19:46:02.900Z,150.80
2023-02-07T19:48:30.721Z,150.37
2023-02-07T19:50:59.949Z,151.07
2023-02-07T19:53:29.228Z,151.03
2023-02-07T19:56:01.942Z,150.77
2023-02-07T19:58:32.240Z,150.67
2023-02-07T20:01:00.439Z,150.77
2023-02-07T20:03:28.905Z,151.17
2023-02-07T20:05:59.621Z,150.93
2023-02-07T20:08:27.532Z,151.40
2023-02-07T20:10:55.363Z,149.77
2023-02-07T20:13:23.377Z,150.67
2023-02-07T20:15:52.566Z,150.37
2023-02-07T20:18:20.375Z,150.73
2023-02-07T20:20:48.396Z,150.73
2023-02-07T20:23:16.380Z,150.53
2023-02-07T20:25:44.217Z,150.57
2023-02-07T20:28:12.107Z,151.00
2023-02-07T20:30:44.897Z,150.47
2023-02-07T20:33:14.154Z,150.70
2023-02-07T20:35:41.955Z,150.60
2023-02-07T20:38:10.003Z,150.63
2023-02-07T20:40:38.185Z,151.03
2023-02-07T20:43:06.244Z,150.37
2023-02-07T20:45:34.117Z,150.60
2023-02-07T20:48:02.087Z,150.23
2023-02-07T20:50:31.213Z,150.57
2023-02-07T20:52:59.028Z,149.90
2023-02-07T20:55:26.981Z,151.20
2023-02-07T20:57:54.765Z,150.60
2023-02-07T21:00:22.812Z,150.60
2023-02-07T21:02:50.673Z,151.03
2023-02-07T21:05:18.621Z,151.07
2023-02-07T21:07:47.816Z,150.57
2023-02-07T21:10:15.600Z,150.53
2023-02-07T21:12:43.392Z,150.67
2023-02-07T21:15:11.437Z,149.33
2023-02-07T21:17:39.226Z,150.53
2023-02-07T21:20:07.638Z,150.00
2023-02-07T21:22:35.853Z,150.17
2023-02-07T21:25:05.156Z,150.03
2023-02-07T21:27:33.940Z,150.73
2023-02-07T21:30:01.735Z,150.93
2023-02-07T21:32:29.567Z,150.10
2023-02-07T21:34:57.814Z,150.30
2023-02-07T21:37:25.622Z,149.87
2023-02-07T21:39:53.963Z,150.50
2023-02-07T21:42:23.119Z,150.53
2023-02-07T21:44:50.921Z,150.03
2023-02-07T21:47:18.689Z,151.03
2023-02-07T21:49:46.465Z,151.03
2023-02-07T21:52:16.175Z,150.97
2023-02-07T21:54:43.973Z,150.57
2023-02-07T21:57:11.828Z,150.37
2023-02-07T21:59:42.380Z,150.20
2023-02-07T22:02:12.229Z,150.37
2023-02-07T22:04:40.118Z,149.73
2023-02-07T22:07:08.795Z,150.03
2023-02-07T22:09:36.620Z,150.60
2023-02-07T22:12:04.664Z,150.90
2023-02-07T22:14:32.499Z,150.73
2023-02-07T22:17:03.138Z,150.13
2023-02-07T22:19:30.892Z,150.63
2023-02-07T22:21:58.908Z,150.40
2023-02-07T22:24:29.026Z,150.30
2023-02-07T22:26:56.824Z,149.87
2023-02-07T22:29:24.677Z,150.93
2023-02-07T22:31:52.751Z,150.23
2023-02-07T22:34:21.895Z,150.13
2023-02-07T22:36:49.887Z,149.77
2023-02-07T22:39:18.822Z,150.70
2023-02-07T22:41:47.363Z,150.47
2023-02-07T22:44:15.550Z,150.93
2023-02-07T22:46:44.312Z,150.47
2023-02-07T22:49:12.154Z,150.13
2023-02-07T22:51:41.402Z,150.43
2023-02-07T22:54:13.761Z,150.60
2023-02-07T22:56:41.565Z,150.10
2023-02-07T22:59:09.431Z,150.57
2023-02-07T23:01:39.271Z,150.23
2023-02-07T23:04:11.190Z,150.70
2023-02-07T23:06:39.183Z,149.97
2023-02-07T23:09:08.554Z,149.73
2023-02-07T23:11:36.873Z,149.50
2023-02-07T23:14:05.372Z,150.20
2023-02-07T23:16:33.778Z,149.90
2023-02-07T23:19:04.893Z,150.40
2023-02-07T23:21:32.717Z,150.10
2023-02-07T23:24:00.965Z,150.10
2023-02-07T23:26:30.061Z,149.80
2023-02-07T23:28:58.464Z,149.37
2023-02-07T23:31:27.124Z,150.27
2023-02-07T23:33:55.432Z,150.43
2023-02-07T23:36:23.710Z,150.07
2023-02-07T23:38:52.179Z,150.13
2023-02-07T23:41:20.082Z,149.93
2023-02-07T23:43:49.414Z,149.50
2023-02-07T23:46:18.312Z,149.93
2023-02-07T23:48:46.463Z,150.40
2023-02-07T23:51:14.871Z,149.50
2023-02-07T23:53:43.261Z,149.50
2023-02-07T23:56:14.275Z,149.90
2023-02-07T23:58:42.261Z,149.87
